sensor_id;sensor_type;location;lat;lon;timestamp;P1;durP1;ratioP1;P2;durP2;ratioP2
3004;SDS011;1512;51.486;6.610;2023-05-10T00:03:26;11.13;;;7.83;;
3004;SDS011;1512;51.486;6.610;2023-05-10T00:07:35;9.88;;;7.35;;
3004;SDS011;1512;51.486;6.610;2023-05-10T00:11:44;11.57;;;7.47;;
3004;SDS011;1512;51.486;6.610;2023-05-10T00:15:52;10.33;;;6.80;;
3004;SDS011;1512;51.486;6.610;2023-05-10T00:20:01;12.85;;;6.62;;
3004;SDS011;1512;51.486;6.610;2023-05-10T00:24:12;14.50;;;9.07;;
3004;SDS011;1512;51.486;6.610;2023-05-10T00:28:20;12.10;;;8.03;;
3004;SDS011;1512;51.486;6.610;2023-05-10T00:32:29;13.10;;;8.70;;
3004;SDS011;1512;51.486;6.610;2023-05-10T00:36:38;11.67;;;7.33;;
3004;SDS011;1512;51.486;6.610;2023-05-10T00:40:47;12.27;;;9.10;;
3004;SDS011;1512;51.486;6.610;2023-05-10T00:44:55;11.33;;;7.80;;
3004;SDS011;1512;51.486;6.610;2023-05-10T00:49:04;13.63;;;8.73;;
3004;SDS011;1512;51.486;6.610;2023-05-10T00:53:14;12.93;;;8.00;;
3004;SDS011;1512;51.486;6.610;2023-05-10T01:01:45;12.10;;;7.70;;
3004;SDS011;1512;51.486;6.610;2023-05-10T01:05:54;14.00;;;8.77;;
3004;SDS011;1512;51.486;6.610;2023-05-10T01:10:04;14.70;;;8.60;;
3004;SDS011;1512;51.486;6.610;2023-05-10T01:14:14;14.27;;;8.80;;
3004;SDS011;1512;51.486;6.610;2023-05-10T01:18:25;14.53;;;8.10;;
3004;SDS011;1512;51.486;6.610;2023-05-10T01:27:25;14.10;;;9.30;;
3004;SDS011;1512;51.486;6.610;2023-05-10T01:36:23;13.73;;;8.27;;
3004;SDS011;1512;51.486;6.610;2023-05-10T01:40:38;14.63;;;9.07;;
3004;SDS011;1512;51.486;6.610;2023-05-10T01:45:16;14.27;;;8.93;;
3004;SDS011;1512;51.486;6.610;2023-05-10T01:49:34;13.70;;;8.37;;
3004;SDS011;1512;51.486;6.610;2023-05-10T01:53:44;16.17;;;9.63;;
3004;SDS011;1512;51.486;6.610;2023-05-10T01:58:00;14.67;;;10.17;;
3004;SDS011;1512;51.486;6.610;2023-05-10T02:02:13;12.33;;;8.73;;
3004;SDS011;1512;51.486;6.610;2023-05-10T02:06:25;10.97;;;8.60;;
3004;SDS011;1512;51.486;6.610;2023-05-10T02:10:34;15.10;;;10.07;;
3004;SDS011;1512;51.486;6.610;2023-05-10T02:14:43;10.40;;;8.40;;
3004;SDS011;1512;51.486;6.610;2023-05-10T02:18:54;14.60;;;9.10;;
3004;SDS011;1512;51.486;6.610;2023-05-10T02:23:06;14.63;;;9.57;;
3004;SDS011;1512;51.486;6.610;2023-05-10T02:27:17;11.60;;;8.53;;
3004;SDS011;1512;51.486;6.610;2023-05-10T02:31:28;16.50;;;10.23;;
3004;SDS011;1512;51.486;6.610;2023-05-10T02:35:38;14.90;;;10.40;;
3004;SDS011;1512;51.486;6.610;2023-05-10T02:39:53;13.20;;;9.63;;
3004;SDS011;1512;51.486;6.610;2023-05-10T02:43:59;15.77;;;10.23;;
3004;SDS011;1512;51.486;6.610;2023-05-10T02:48:10;13.05;;;8.58;;
3004;SDS011;1512;51.486;6.610;2023-05-10T02:52:21;13.23;;;8.90;;
3004;SDS011;1512;51.486;6.610;2023-05-10T03:01:01;20.07;;;9.40;;
3004;SDS011;1512;51.486;6.610;2023-05-10T03:05:09;10.83;;;8.50;;
3004;SDS011;1512;51.486;6.610;2023-05-10T03:09:18;13.57;;;9.40;;
3004;SDS011;1512;51.486;6.610;2023-05-10T03:18:05;10.60;;;7.80;;
3004;SDS011;1512;51.486;6.610;2023-05-10T03:22:43;13.00;;;9.07;;
3004;SDS011;1512;51.486;6.610;2023-05-10T03:26:48;16.93;;;10.10;;
3004;SDS011;1512;51.486;6.610;2023-05-10T03:35:27;11.90;;;8.57;;
3004;SDS011;1512;51.486;6.610;2023-05-10T03:39:36;12.37;;;9.67;;
3004;SDS011;1512;51.486;6.610;2023-05-10T03:43:45;12.90;;;8.77;;
3004;SDS011;1512;51.486;6.610;2023-05-10T03:47:53;17.93;;;10.03;;
3004;SDS011;1512;51.486;6.610;2023-05-10T03:52:02;15.47;;;9.97;;
3004;SDS011;1512;51.486;6.610;2023-05-10T03:56:12;13.93;;;9.43;;
3004;SDS011;1512;51.486;6.610;2023-05-10T04:00:20;19.50;;;10.20;;
3004;SDS011;1512;51.486;6.610;2023-05-10T04:04:29;16.57;;;9.80;;
3004;SDS011;1512;51.486;6.610;2023-05-10T04:08:38;15.73;;;10.40;;
3004;SDS011;1512;51.486;6.610;2023-05-10T04:12:46;18.90;;;11.27;;
3004;SDS011;1512;51.486;6.610;2023-05-10T04:16:55;18.47;;;11.47;;
3004;SDS011;1512;51.486;6.610;2023-05-10T04:21:04;23.43;;;13.20;;
3004;SDS011;1512;51.486;6.610;2023-05-10T04:25:14;18.23;;;10.97;;
3004;SDS011;1512;51.486;6.610;2023-05-10T04:29:23;24.27;;;13.43;;
3004;SDS011;1512;51.486;6.610;2023-05-10T04:33:32;24.60;;;13.87;;
3004;SDS011;1512;51.486;6.610;2023-05-10T04:37:41;23.23;;;12.27;;
3004;SDS011;1512;51.486;6.610;2023-05-10T04:41:50;20.00;;;13.10;;
3004;SDS011;1512;51.486;6.610;2023-05-10T04:45:58;27.40;;;15.10;;
3004;SDS011;1512;51.486;6.610;2023-05-10T04:50:07;24.63;;;13.60;;
3004;SDS011;1512;51.486;6.610;2023-05-10T04:54:16;30.77;;;16.23;;
3004;SDS011;1512;51.486;6.610;2023-05-10T04:58:25;23.67;;;15.53;;
3004;SDS011;1512;51.486;6.610;2023-05-10T05:02:34;21.87;;;14.67;;
3004;SDS011;1512;51.486;6.610;2023-05-10T05:06:43;27.37;;;16.33;;
3004;SDS011;1512;51.486;6.610;2023-05-10T05:10:51;29.27;;;15.80;;
3004;SDS011;1512;51.486;6.610;2023-05-10T05:15:01;21.97;;;14.33;;
3004;SDS011;1512;51.486;6.610;2023-05-10T05:19:10;29.30;;;15.07;;
3004;SDS011;1512;51.486;6.610;2023-05-10T05:23:18;32.27;;;16.20;;
3004;SDS011;1512;51.486;6.610;2023-05-10T05:27:27;24.47;;;15.28;;
3004;SDS011;1512;51.486;6.610;2023-05-10T05:31:36;26.80;;;15.80;;
3004;SDS011;1512;51.486;6.610;2023-05-10T05:35:50;25.20;;;15.30;;
3004;SDS011;1512;51.486;6.610;2023-05-10T05:39:59;27.60;;;16.27;;
3004;SDS011;1512;51.486;6.610;2023-05-10T05:44:08;25.02;;;14.70;;
3004;SDS011;1512;51.486;6.610;2023-05-10T05:48:17;32.67;;;17.60;;
3004;SDS011;1512;51.486;6.610;2023-05-10T05:52:26;35.67;;;18.33;;
3004;SDS011;1512;51.486;6.610;2023-05-10T05:56:34;36.70;;;17.30;;
3004;SDS011;1512;51.486;6.610;2023-05-10T06:00:44;33.10;;;17.67;;
3004;SDS011;1512;51.486;6.610;2023-05-10T06:04:53;26.93;;;15.80;;
3004;SDS011;1512;51.486;6.610;2023-05-10T06:09:01;28.83;;;15.83;;
3004;SDS011;1512;51.486;6.610;2023-05-10T06:13:10;31.20;;;19.70;;
3004;SDS011;1512;51.486;6.610;2023-05-10T06:17:19;29.73;;;18.40;;
3004;SDS011;1512;51.486;6.610;2023-05-10T06:21:28;36.07;;;17.90;;
3004;SDS011;1512;51.486;6.610;2023-05-10T06:30:05;26.73;;;17.37;;
3004;SDS011;1512;51.486;6.610;2023-05-10T06:34:17;32.43;;;18.57;;
3004;SDS011;1512;51.486;6.610;2023-05-10T06:38:25;33.13;;;19.63;;
3004;SDS011;1512;51.486;6.610;2023-05-10T06:42:34;33.53;;;18.30;;
3004;SDS011;1512;51.486;6.610;2023-05-10T06:46:43;40.23;;;19.00;;
3004;SDS011;1512;51.486;6.610;2023-05-10T06:50:52;37.13;;;18.90;;
3004;SDS011;1512;51.486;6.610;2023-05-10T06:55:01;33.50;;;18.60;;
3004;SDS011;1512;51.486;6.610;2023-05-10T06:59:10;36.97;;;18.37;;
3004;SDS011;1512;51.486;6.610;2023-05-10T07:03:20;28.97;;;17.60;;
3004;SDS011;1512;51.486;6.610;2023-05-10T07:07:29;35.90;;;20.93;;
3004;SDS011;1512;51.486;6.610;2023-05-10T07:11:38;33.17;;;18.67;;
3004;SDS011;1512;51.486;6.610;2023-05-10T07:15:46;34.63;;;17.67;;
3004;SDS011;1512;51.486;6.610;2023-05-10T07:19:55;30.20;;;18.40;;
3004;SDS011;1512;51.486;6.610;2023-05-10T07:24:04;38.20;;;18.53;;
3004;SDS011;1512;51.486;6.610;2023-05-10T07:28:13;33.80;;;17.40;;
3004;SDS011;1512;51.486;6.610;2023-05-10T07:32:23;36.73;;;18.37;;
3004;SDS011;1512;51.486;6.610;2023-05-10T07:36:32;29.90;;;17.60;;
3004;SDS011;1512;51.486;6.610;2023-05-10T07:40:41;38.83;;;19.87;;
3004;SDS011;1512;51.486;6.610;2023-05-10T07:44:50;37.17;;;18.33;;
3004;SDS011;1512;51.486;6.610;2023-05-10T07:48:58;34.67;;;17.83;;
3004;SDS011;1512;51.486;6.610;2023-05-10T07:53:07;36.97;;;18.60;;
3004;SDS011;1512;51.486;6.610;2023-05-10T07:57:18;33.03;;;17.90;;
3004;SDS011;1512;51.486;6.610;2023-05-10T08:01:29;31.77;;;16.70;;
3004;SDS011;1512;51.486;6.610;2023-05-10T08:05:41;32.20;;;16.17;;
3004;SDS011;1512;51.486;6.610;2023-05-10T08:09:50;29.30;;;17.80;;
3004;SDS011;1512;51.486;6.610;2023-05-10T08:14:04;28.00;;;14.23;;
3004;SDS011;1512;51.486;6.610;2023-05-10T08:18:13;35.03;;;17.03;;
3004;SDS011;1512;51.486;6.610;2023-05-10T08:26:43;32.13;;;17.20;;
3004;SDS011;1512;51.486;6.610;2023-05-10T08:30:51;32.30;;;16.37;;
3004;SDS011;1512;51.486;6.610;2023-05-10T08:35:00;37.50;;;17.60;;
3004;SDS011;1512;51.486;6.610;2023-05-10T08:39:09;27.10;;;13.67;;
3004;SDS011;1512;51.486;6.610;2023-05-10T08:47:49;22.13;;;16.73;;
3004;SDS011;1512;51.486;6.610;2023-05-10T08:51:59;24.20;;;15.10;;
3004;SDS011;1512;51.486;6.610;2023-05-10T08:56:12;25.67;;;13.77;;
3004;SDS011;1512;51.486;6.610;2023-05-10T09:00:22;24.13;;;14.60;;
3004;SDS011;1512;51.486;6.610;2023-05-10T09:04:31;26.77;;;14.83;;
3004;SDS011;1512;51.486;6.610;2023-05-10T09:08:41;26.53;;;13.77;;
3004;SDS011;1512;51.486;6.610;2023-05-10T09:12:50;22.40;;;12.90;;
3004;SDS011;1512;51.486;6.610;2023-05-10T09:17:00;17.90;;;12.30;;
3004;SDS011;1512;51.486;6.610;2023-05-10T09:21:15;18.53;;;10.40;;
3004;SDS011;1512;51.486;6.610;2023-05-10T09:25:24;18.00;;;11.13;;
3004;SDS011;1512;51.486;6.610;2023-05-10T09:29:41;21.20;;;12.67;;
3004;SDS011;1512;51.486;6.610;2023-05-10T09:33:50;19.27;;;13.03;;
3004;SDS011;1512;51.486;6.610;2023-05-10T09:38:00;24.52;;;13.90;;
3004;SDS011;1512;51.486;6.610;2023-05-10T09:46:39;20.93;;;10.63;;
3004;SDS011;1512;51.486;6.610;2023-05-10T09:50:55;18.47;;;12.50;;
3004;SDS011;1512;51.486;6.610;2023-05-10T09:55:00;20.17;;;11.13;;
3004;SDS011;1512;51.486;6.610;2023-05-10T09:59:10;20.03;;;12.53;;
3004;SDS011;1512;51.486;6.610;2023-05-10T10:03:20;25.53;;;12.30;;
3004;SDS011;1512;51.486;6.610;2023-05-10T10:07:29;21.20;;;11.03;;
3004;SDS011;1512;51.486;6.610;2023-05-10T10:11:39;17.53;;;10.70;;
3004;SDS011;1512;51.486;6.610;2023-05-10T10:15:48;18.57;;;11.37;;
3004;SDS011;1512;51.486;6.610;2023-05-10T10:19:58;20.47;;;13.13;;
3004;SDS011;1512;51.486;6.610;2023-05-10T10:24:07;21.53;;;14.70;;
3004;SDS011;1512;51.486;6.610;2023-05-10T10:28:24;21.13;;;13.07;;
3004;SDS011;1512;51.486;6.610;2023-05-10T10:32:46;22.07;;;12.47;;
3004;SDS011;1512;51.486;6.610;2023-05-10T10:37:23;18.17;;;11.60;;
3004;SDS011;1512;51.486;6.610;2023-05-10T10:41:34;20.60;;;12.50;;
3004;SDS011;1512;51.486;6.610;2023-05-10T10:50:17;19.50;;;14.03;;
3004;SDS011;1512;51.486;6.610;2023-05-10T10:54:28;19.83;;;12.27;;
3004;SDS011;1512;51.486;6.610;2023-05-10T10:58:37;25.80;;;14.63;;
3004;SDS011;1512;51.486;6.610;2023-05-10T11:02:47;23.60;;;15.40;;
3004;SDS011;1512;51.486;6.610;2023-05-10T11:07:15;19.83;;;13.40;;
3004;SDS011;1512;51.486;6.610;2023-05-10T11:11:35;19.73;;;12.90;;
3004;SDS011;1512;51.486;6.610;2023-05-10T11:15:48;18.80;;;12.37;;
3004;SDS011;1512;51.486;6.610;2023-05-10T11:20:06;16.90;;;11.37;;
3004;SDS011;1512;51.486;6.610;2023-05-10T11:24:25;15.40;;;10.30;;
3004;SDS011;1512;51.486;6.610;2023-05-10T11:28:49;23.97;;;14.37;;
3004;SDS011;1512;51.486;6.610;2023-05-10T11:32:59;13.43;;;9.20;;
3004;SDS011;1512;51.486;6.610;2023-05-10T11:37:08;13.40;;;9.93;;
3004;SDS011;1512;51.486;6.610;2023-05-10T11:41:17;13.80;;;9.30;;
3004;SDS011;1512;51.486;6.610;2023-05-10T11:45:29;11.30;;;9.33;;
3004;SDS011;1512;51.486;6.610;2023-05-10T11:49:44;11.48;;;7.95;;
3004;SDS011;1512;51.486;6.610;2023-05-10T11:53:54;12.17;;;7.43;;
3004;SDS011;1512;51.486;6.610;2023-05-10T11:58:04;17.00;;;7.73;;
3004;SDS011;1512;51.486;6.610;2023-05-10T12:02:16;8.90;;;6.70;;
3004;SDS011;1512;51.486;6.610;2023-05-10T12:06:30;12.17;;;8.20;;
3004;SDS011;1512;51.486;6.610;2023-05-10T12:10:38;15.83;;;7.40;;
3004;SDS011;1512;51.486;6.610;2023-05-10T12:14:48;9.80;;;7.57;;
3004;SDS011;1512;51.486;6.610;2023-05-10T12:18:59;14.80;;;7.63;;
3004;SDS011;1512;51.486;6.610;2023-05-10T12:23:09;9.70;;;6.93;;
3004;SDS011;1512;51.486;6.610;2023-05-10T12:27:19;12.13;;;6.90;;
3004;SDS011;1512;51.486;6.610;2023-05-10T12:31:27;10.07;;;7.20;;
3004;SDS011;1512;51.486;6.610;2023-05-10T12:35:49;9.17;;;8.27;;
3004;SDS011;1512;51.486;6.610;2023-05-10T12:40:03;8.50;;;6.63;;
3004;SDS011;1512;51.486;6.610;2023-05-10T12:44:15;9.67;;;6.33;;
3004;SDS011;1512;51.486;6.610;2023-05-10T12:48:25;11.90;;;7.77;;
3004;SDS011;1512;51.486;6.610;2023-05-10T12:52:35;8.33;;;7.27;;
3004;SDS011;1512;51.486;6.610;2023-05-10T12:56:44;8.00;;;6.60;;
3004;SDS011;1512;51.486;6.610;2023-05-10T13:00:52;6.93;;;5.40;;
3004;SDS011;1512;51.486;6.610;2023-05-10T13:05:03;6.93;;;6.20;;
3004;SDS011;1512;51.486;6.610;2023-05-10T13:09:12;9.50;;;6.63;;
3004;SDS011;1512;51.486;6.610;2023-05-10T13:13:22;10.07;;;6.17;;
3004;SDS011;1512;51.486;6.610;2023-05-10T13:17:30;10.53;;;6.23;;
3004;SDS011;1512;51.486;6.610;2023-05-10T13:21:40;7.67;;;5.53;;
3004;SDS011;1512;51.486;6.610;2023-05-10T13:25:51;12.67;;;7.17;;
3004;SDS011;1512;51.486;6.610;2023-05-10T13:29:59;7.87;;;7.07;;
3004;SDS011;1512;51.486;6.610;2023-05-10T13:34:10;6.10;;;5.50;;
3004;SDS011;1512;51.486;6.610;2023-05-10T13:38:19;9.87;;;7.77;;
3004;SDS011;1512;51.486;6.610;2023-05-10T13:42:28;7.73;;;6.90;;
3004;SDS011;1512;51.486;6.610;2023-05-10T13:46:38;9.00;;;7.40;;
3004;SDS011;1512;51.486;6.610;2023-05-10T13:50:47;9.53;;;6.73;;
3004;SDS011;1512;51.486;6.610;2023-05-10T13:54:56;11.77;;;7.33;;
3004;SDS011;1512;51.486;6.610;2023-05-10T13:59:05;11.63;;;8.63;;
3004;SDS011;1512;51.486;6.610;2023-05-10T14:03:16;11.87;;;8.50;;
3004;SDS011;1512;51.486;6.610;2023-05-10T14:07:25;13.33;;;7.10;;
3004;SDS011;1512;51.486;6.610;2023-05-10T14:11:34;8.17;;;6.93;;
3004;SDS011;1512;51.486;6.610;2023-05-10T14:15:43;15.50;;;8.87;;
3004;SDS011;1512;51.486;6.610;2023-05-10T14:19:54;8.10;;;6.63;;
3004;SDS011;1512;51.486;6.610;2023-05-10T14:24:02;12.93;;;9.37;;
3004;SDS011;1512;51.486;6.610;2023-05-10T14:28:11;12.23;;;9.80;;
3004;SDS011;1512;51.486;6.610;2023-05-10T14:32:21;12.93;;;9.40;;
3004;SDS011;1512;51.486;6.610;2023-05-10T14:36:30;12.73;;;9.43;;
3004;SDS011;1512;51.486;6.610;2023-05-10T14:40:39;14.63;;;11.33;;
3004;SDS011;1512;51.486;6.610;2023-05-10T14:44:47;15.67;;;11.30;;
3004;SDS011;1512;51.486;6.610;2023-05-10T14:53:24;7.57;;;5.83;;
3004;SDS011;1512;51.486;6.610;2023-05-10T14:57:33;4.70;;;3.80;;
3004;SDS011;1512;51.486;6.610;2023-05-10T15:01:41;3.50;;;2.83;;
3004;SDS011;1512;51.486;6.610;2023-05-10T15:05:51;4.80;;;3.10;;
3004;SDS011;1512;51.486;6.610;2023-05-10T15:14:28;4.00;;;3.30;;
3004;SDS011;1512;51.486;6.610;2023-05-10T15:18:37;6.43;;;3.83;;
3004;SDS011;1512;51.486;6.610;2023-05-10T15:22:46;4.40;;;3.83;;
3004;SDS011;1512;51.486;6.610;2023-05-10T15:26:58;5.30;;;4.33;;
3004;SDS011;1512;51.486;6.610;2023-05-10T15:31:13;4.45;;;4.05;;
3004;SDS011;1512;51.486;6.610;2023-05-10T15:35:22;8.17;;;4.97;;
3004;SDS011;1512;51.486;6.610;2023-05-10T15:39:31;7.57;;;5.63;;
3004;SDS011;1512;51.486;6.610;2023-05-10T15:43:39;6.12;;;4.58;;
3004;SDS011;1512;51.486;6.610;2023-05-10T15:47:48;8.97;;;5.67;;
3004;SDS011;1512;51.486;6.610;2023-05-10T15:52:00;6.30;;;5.70;;
3004;SDS011;1512;51.486;6.610;2023-05-10T15:56:09;8.73;;;5.97;;
3004;SDS011;1512;51.486;6.610;2023-05-10T16:00:19;12.13;;;6.90;;
3004;SDS011;1512;51.486;6.610;2023-05-10T16:04:28;9.83;;;7.63;;
3004;SDS011;1512;51.486;6.610;2023-05-10T16:08:37;10.40;;;7.07;;
3004;SDS011;1512;51.486;6.610;2023-05-10T16:12:45;15.27;;;7.43;;
3004;SDS011;1512;51.486;6.610;2023-05-10T16:16:54;11.00;;;7.57;;
3004;SDS011;1512;51.486;6.610;2023-05-10T16:21:05;10.70;;;8.00;;
3004;SDS011;1512;51.486;6.610;2023-05-10T16:25:14;12.10;;;7.90;;
3004;SDS011;1512;51.486;6.610;2023-05-10T16:29:23;10.83;;;6.97;;
3004;SDS011;1512;51.486;6.610;2023-05-10T16:38:00;7.80;;;6.97;;
3004;SDS011;1512;51.486;6.610;2023-05-10T16:42:08;8.47;;;6.70;;
3004;SDS011;1512;51.486;6.610;2023-05-10T16:46:17;7.30;;;6.07;;
3004;SDS011;1512;51.486;6.610;2023-05-10T16:50:26;6.80;;;5.97;;
3004;SDS011;1512;51.486;6.610;2023-05-10T16:54:35;7.20;;;6.50;;
3004;SDS011;1512;51.486;6.610;2023-05-10T16:58:45;12.07;;;7.53;;
3004;SDS011;1512;51.486;6.610;2023-05-10T17:02:55;7.13;;;5.97;;
3004;SDS011;1512;51.486;6.610;2023-05-10T17:07:04;7.17;;;5.77;;
3004;SDS011;1512;51.486;6.610;2023-05-10T17:11:14;5.33;;;4.83;;
3004;SDS011;1512;51.486;6.610;2023-05-10T17:15:23;6.13;;;5.53;;
3004;SDS011;1512;51.486;6.610;2023-05-10T17:19:31;5.93;;;5.33;;
3004;SDS011;1512;51.486;6.610;2023-05-10T17:23:40;7.13;;;5.10;;
3004;SDS011;1512;51.486;6.610;2023-05-10T17:27:52;6.20;;;4.50;;
3004;SDS011;1512;51.486;6.610;2023-05-10T17:32:04;6.83;;;4.70;;
3004;SDS011;1512;51.486;6.610;2023-05-10T17:36:16;6.07;;;4.80;;
3004;SDS011;1512;51.486;6.610;2023-05-10T17:40:28;4.33;;;3.90;;
3004;SDS011;1512;51.486;6.610;2023-05-10T17:44:37;5.17;;;4.67;;
3004;SDS011;1512;51.486;6.610;2023-05-10T17:48:48;5.50;;;4.90;;
3004;SDS011;1512;51.486;6.610;2023-05-10T17:53:01;5.50;;;4.73;;
3004;SDS011;1512;51.486;6.610;2023-05-10T17:57:12;4.60;;;4.20;;
3004;SDS011;1512;51.486;6.610;2023-05-10T18:01:24;5.53;;;4.93;;
3004;SDS011;1512;51.486;6.610;2023-05-10T18:05:37;4.73;;;4.30;;
3004;SDS011;1512;51.486;6.610;2023-05-10T18:09:49;6.78;;;4.90;;
3004;SDS011;1512;51.486;6.610;2023-05-10T18:18:34;10.83;;;7.17;;
3004;SDS011;1512;51.486;6.610;2023-05-10T18:22:44;6.47;;;5.50;;
3004;SDS011;1512;51.486;6.610;2023-05-10T18:26:57;6.60;;;5.60;;
3004;SDS011;1512;51.486;6.610;2023-05-10T18:31:09;6.63;;;5.67;;
3004;SDS011;1512;51.486;6.610;2023-05-10T18:35:23;7.97;;;6.03;;
3004;SDS011;1512;51.486;6.610;2023-05-10T18:39:32;6.97;;;6.00;;
3004;SDS011;1512;51.486;6.610;2023-05-10T18:43:46;8.47;;;5.77;;
3004;SDS011;1512;51.486;6.610;2023-05-10T18:47:54;8.53;;;7.13;;
3004;SDS011;1512;51.486;6.610;2023-05-10T18:52:03;9.20;;;6.97;;
3004;SDS011;1512;51.486;6.610;2023-05-10T18:56:15;9.93;;;7.03;;
3004;SDS011;1512;51.486;6.610;2023-05-10T19:00:39;11.73;;;7.47;;
3004;SDS011;1512;51.486;6.610;2023-05-10T19:04:47;9.70;;;7.80;;
3004;SDS011;1512;51.486;6.610;2023-05-10T19:08:59;10.20;;;8.03;;
3004;SDS011;1512;51.486;6.610;2023-05-10T19:13:13;11.17;;;9.10;;
3004;SDS011;1512;51.486;6.610;2023-05-10T19:17:29;11.50;;;8.63;;
3004;SDS011;1512;51.486;6.610;2023-05-10T19:21:45;10.87;;;8.80;;
3004;SDS011;1512;51.486;6.610;2023-05-10T19:25:56;11.87;;;10.27;;
3004;SDS011;1512;51.486;6.610;2023-05-10T19:30:07;12.30;;;9.50;;
3004;SDS011;1512;51.486;6.610;2023-05-10T19:34:19;12.00;;;8.77;;
3004;SDS011;1512;51.486;6.610;2023-05-10T19:38:29;11.78;;;10.40;;
3004;SDS011;1512;51.486;6.610;2023-05-10T19:42:40;14.00;;;9.90;;
3004;SDS011;1512;51.486;6.610;2023-05-10T19:46:48;19.97;;;9.80;;
3004;SDS011;1512;51.486;6.610;2023-05-10T19:51:01;11.80;;;8.67;;
3004;SDS011;1512;51.486;6.610;2023-05-10T19:55:13;11.63;;;9.13;;
3004;SDS011;1512;51.486;6.610;2023-05-10T19:59:26;14.13;;;9.10;;
3004;SDS011;1512;51.486;6.610;2023-05-10T20:03:37;12.20;;;10.00;;
3004;SDS011;1512;51.486;6.610;2023-05-10T20:07:50;12.27;;;10.30;;
3004;SDS011;1512;51.486;6.610;2023-05-10T20:12:05;14.63;;;10.83;;
3004;SDS011;1512;51.486;6.610;2023-05-10T20:16:21;16.40;;;10.53;;
3004;SDS011;1512;51.486;6.610;2023-05-10T20:20:39;15.57;;;11.73;;
3004;SDS011;1512;51.486;6.610;2023-05-10T20:25:01;13.07;;;10.87;;
3004;SDS011;1512;51.486;6.610;2023-05-10T20:29:33;12.97;;;10.40;;
3004;SDS011;1512;51.486;6.610;2023-05-10T20:33:52;14.33;;;11.20;;
3004;SDS011;1512;51.486;6.610;2023-05-10T20:38:10;13.40;;;11.03;;
3004;SDS011;1512;51.486;6.610;2023-05-10T20:42:30;14.03;;;11.37;;
3004;SDS011;1512;51.486;6.610;2023-05-10T20:46:52;17.73;;;12.00;;
3004;SDS011;1512;51.486;6.610;2023-05-10T20:51:19;15.50;;;10.97;;
3004;SDS011;1512;51.486;6.610;2023-05-10T20:55:53;14.23;;;10.23;;
3004;SDS011;1512;51.486;6.610;2023-05-10T21:00:34;14.37;;;12.87;;
3004;SDS011;1512;51.486;6.610;2023-05-10T21:04:54;14.77;;;10.50;;
3004;SDS011;1512;51.486;6.610;2023-05-10T21:09:24;14.23;;;10.33;;
3004;SDS011;1512;51.486;6.610;2023-05-10T21:13:58;15.03;;;11.12;;
3004;SDS011;1512;51.486;6.610;2023-05-10T21:18:21;20.27;;;14.10;;
3004;SDS011;1512;51.486;6.610;2023-05-10T21:22:48;15.00;;;10.87;;
3004;SDS011;1512;51.486;6.610;2023-05-10T21:27:06;20.30;;;12.93;;
3004;SDS011;1512;51.486;6.610;2023-05-10T21:31:38;18.10;;;12.37;;
3004;SDS011;1512;51.486;6.610;2023-05-10T21:36:01;17.53;;;12.63;;
3004;SDS011;1512;51.486;6.610;2023-05-10T21:40:34;19.83;;;11.73;;
3004;SDS011;1512;51.486;6.610;2023-05-10T21:45:25;16.37;;;11.73;;
3004;SDS011;1512;51.486;6.610;2023-05-10T21:49:36;19.50;;;13.43;;
3004;SDS011;1512;51.486;6.610;2023-05-10T21:54:24;17.27;;;12.67;;
3004;SDS011;1512;51.486;6.610;2023-05-10T21:59:06;19.00;;;12.13;;
3004;SDS011;1512;51.486;6.610;2023-05-10T22:03:47;18.83;;;14.33;;
3004;SDS011;1512;51.486;6.610;2023-05-10T22:08:25;21.83;;;14.20;;
3004;SDS011;1512;51.486;6.610;2023-05-10T22:13:00;21.20;;;15.10;;
3004;SDS011;1512;51.486;6.610;2023-05-10T22:17:41;19.90;;;12.80;;
3004;SDS011;1512;51.486;6.610;2023-05-10T22:22:19;21.10;;;13.20;;
3004;SDS011;1512;51.486;6.610;2023-05-10T22:27:01;19.33;;;14.67;;
3004;SDS011;1512;51.486;6.610;2023-05-10T22:31:27;16.73;;;13.47;;
3004;SDS011;1512;51.486;6.610;2023-05-10T22:35:51;20.37;;;14.97;;
3004;SDS011;1512;51.486;6.610;2023-05-10T22:40:26;18.10;;;13.03;;
3004;SDS011;1512;51.486;6.610;2023-05-10T22:44:58;20.90;;;13.00;;
3004;SDS011;1512;51.486;6.610;2023-05-10T22:49:46;18.77;;;14.77;;
3004;SDS011;1512;51.486;6.610;2023-05-10T22:54:26;21.27;;;13.70;;
3004;SDS011;1512;51.486;6.610;2023-05-10T22:58:54;17.20;;;12.00;;
3004;SDS011;1512;51.486;6.610;2023-05-10T23:03:36;19.50;;;13.03;;
3004;SDS011;1512;51.486;6.610;2023-05-10T23:08:05;18.07;;;13.50;;
3004;SDS011;1512;51.486;6.610;2023-05-10T23:17:18;25.97;;;16.33;;
3004;SDS011;1512;51.486;6.610;2023-05-10T23:21:55;22.63;;;15.37;;
3004;SDS011;1512;51.486;6.610;2023-05-10T23:26:32;20.53;;;14.90;;
3004;SDS011;1512;51.486;6.610;2023-05-10T23:31:17;18.63;;;12.47;;
3004;SDS011;1512;51.486;6.610;2023-05-10T23:35:54;20.83;;;14.00;;
3004;SDS011;1512;51.486;6.610;2023-05-10T23:40:31;23.27;;;15.17;;
3004;SDS011;1512;51.486;6.610;2023-05-10T23:44:41;21.73;;;13.88;;
3004;SDS011;1512;51.486;6.610;2023-05-10T23:48:50;22.27;;;16.47;;
3004;SDS011;1512;51.486;6.610;2023-05-10T23:52:59;22.93;;;17.03;;
3004;SDS011;1512;51.486;6.610;2023-05-10T23:57:07;21.37;;;16.00;;
